createdAt,value
2018-09-02T00:00:53.839Z,16.26
2018-09-02T00:03:22.745Z,16.28
2018-09-02T00:05:51.644Z,16.14
2018-09-02T00:08:20.542Z,16.23
2018-09-02T00:10:49.416Z,15.96
2018-09-02T00:13:18.529Z,15.86
2018-09-02T00:15:47.476Z,15.76
2018-09-02T00:18:16.521Z,15.86
2018-09-02T00:20:45.523Z,15.89
2018-09-02T00:23:14.470Z,16.18
2018-09-02T00:25:43.385Z,16.12
2018-09-02T00:28:12.298Z,16.20
2018-09-02T00:30:41.188Z,15.87
2018-09-02T00:33:10.171Z,15.74
2018-09-02T00:35:39.070Z,15.64
2018-09-02T00:38:08.302Z,15.51
2018-09-02T00:40:37.185Z,15.49
2018-09-02T00:43:06.208Z,15.48
2018-09-02T00:45:35.120Z,15.44
2018-09-02T00:48:04.005Z,15.43
2018-09-02T00:50:32.937Z,15.52
2018-09-02T00:53:01.966Z,15.63
2018-09-02T00:55:30.826Z,15.51
2018-09-02T00:57:59.762Z,15.79
2018-09-02T01:00:40.612Z,15.89
2018-09-02T01:03:09.677Z,15.92
2018-09-02T01:05:38.808Z,15.84
2018-09-02T01:08:07.843Z,15.85
2018-09-02T01:10:36.949Z,15.71
2018-09-02T01:13:06.721Z,15.71
2018-09-02T01:15:35.632Z,15.58
2018-09-02T01:18:04.598Z,15.30
2018-09-02T01:20:33.607Z,15.68
2018-09-02T01:23:02.657Z,15.18
2018-09-02T01:25:31.589Z,15.57
2018-09-02T01:28:00.530Z,15.50
2018-09-02T01:30:29.530Z,15.40
2018-09-02T01:32:58.485Z,15.43
2018-09-02T01:35:32.726Z,15.12
2018-09-02T01:38:03.469Z,14.96
2018-09-02T01:40:33.209Z,14.94
2018-09-02T01:43:02.329Z,14.87
2018-09-02T01:45:31.704Z,14.93
2018-09-02T01:48:00.824Z,14.75
2018-09-02T01:50:29.930Z,14.82
2018-09-02T01:52:59.033Z,14.63
2018-09-02T01:55:28.143Z,14.57
2018-09-02T01:57:57.472Z,14.77
2018-09-02T02:00:26.367Z,14.30
2018-09-02T02:02:55.486Z,14.37
2018-09-02T02:05:24.533Z,14.39
2018-09-02T02:07:53.453Z,14.55
2018-09-02T02:10:22.421Z,14.43
2018-09-02T02:12:51.412Z,14.70
2018-09-02T02:15:20.402Z,14.53
2018-09-02T02:17:49.395Z,14.36
2018-09-02T02:20:18.342Z,14.28
2018-09-02T02:22:47.448Z,14.20
2018-09-02T02:25:16.357Z,14.11
2018-09-02T02:27:45.347Z,14.19
2018-09-02T02:30:14.343Z,14.31
2018-09-02T02:32:43.271Z,14.25
2018-09-02T02:35:12.271Z,14.23
2018-09-02T02:37:41.302Z,14.29
2018-09-02T02:40:10.676Z,14.28
2018-09-02T02:42:39.604Z,14.37
2018-09-02T02:45:08.569Z,14.27
2018-09-02T02:47:37.887Z,14.41
2018-09-02T02:50:07.002Z,14.32
2018-09-02T02:52:41.251Z,14.45
2018-09-02T02:55:10.447Z,14.15
2018-09-02T02:57:39.448Z,14.09
2018-09-02T03:00:08.480Z,14.33
2018-09-02T03:02:37.395Z,14.50
2018-09-02T03:05:07.166Z,14.53
2018-09-02T03:07:36.132Z,14.46
2018-09-02T03:10:05.130Z,14.46
2018-09-02T03:12:34.077Z,14.49
2018-09-02T03:15:03.064Z,14.52
2018-09-02T03:17:31.973Z,14.46
2018-09-02T03:20:00.902Z,14.44
2018-09-02T03:22:29.858Z,14.31
2018-09-02T03:24:58.887Z,14.35
2018-09-02T03:27:27.947Z,14.48
2018-09-02T03:29:57.183Z,14.36
2018-09-02T03:32:26.143Z,14.39
2018-09-02T03:34:55.145Z,14.31
2018-09-02T03:37:24.128Z,14.28
2018-09-02T03:39:53.120Z,14.17
2018-09-02T03:42:22.106Z,14.28
2018-09-02T03:44:51.056Z,14.38
2018-09-02T03:47:20.003Z,14.32
2018-09-02T03:49:48.956Z,14.30
2018-09-02T03:52:17.916Z,13.94
2018-09-02T03:54:46.836Z,14.09
2018-09-02T03:57:15.748Z,14.08
2018-09-02T03:59:44.720Z,14.09
2018-09-02T04:02:13.642Z,14.10
2018-09-02T04:04:42.586Z,14.00
2018-09-02T04:07:11.504Z,14.08
2018-09-02T04:09:40.433Z,13.92
2018-09-02T04:12:09.373Z,13.97
2018-09-02T04:14:38.701Z,13.78
2018-09-02T04:17:07.646Z,13.61
2018-09-02T04:19:36.554Z,13.73
2018-09-02T04:22:05.546Z,13.67
2018-09-02T04:24:34.503Z,13.55
2018-09-02T04:27:03.459Z,13.68
2018-09-02T04:29:32.411Z,13.82
2018-09-02T04:32:02.210Z,13.86
2018-09-02T04:34:31.122Z,13.81
2018-09-02T04:37:00.055Z,13.55
2018-09-02T04:39:29.037Z,13.75
2018-09-02T04:41:57.962Z,13.73
2018-09-02T04:44:26.910Z,13.67
2018-09-02T04:46:55.862Z,13.46
2018-09-02T04:49:24.820Z,13.38
2018-09-02T04:51:53.751Z,13.43
2018-09-02T04:54:23.118Z,13.33
2018-09-02T04:56:51.974Z,13.14
2018-09-02T04:59:20.967Z,13.20
2018-09-02T05:01:49.921Z,13.18
2018-09-02T05:04:18.866Z,13.46
2018-09-02T05:06:47.923Z,13.28
2018-09-02T05:09:16.876Z,13.07
2018-09-02T05:11:45.787Z,13.27
2018-09-02T05:14:14.787Z,13.36
2018-09-02T05:16:43.700Z,13.17
2018-09-02T05:19:12.607Z,13.30
2018-09-02T05:21:41.936Z,13.08
2018-09-02T05:24:10.872Z,13.04
2018-09-02T05:26:39.823Z,13.18
2018-09-02T05:29:08.802Z,13.13
2018-09-02T05:31:37.717Z,13.39
2018-09-02T05:34:07.004Z,13.29
2018-09-02T05:36:35.958Z,13.15
2018-09-02T05:39:07.698Z,13.15
2018-09-02T05:41:36.619Z,13.32
2018-09-02T05:44:05.677Z,13.06
2018-09-02T05:46:34.624Z,13.28
2018-09-02T05:49:03.572Z,13.14
2018-09-02T05:51:32.871Z,13.20
2018-09-02T05:54:01.822Z,13.16
2018-09-02T05:56:30.721Z,13.24
2018-09-02T05:58:59.642Z,13.33
2018-09-02T06:01:28.611Z,13.44
2018-09-02T06:03:57.559Z,13.38
2018-09-02T06:06:26.529Z,13.46
2018-09-02T06:08:55.497Z,13.48
2018-09-02T06:11:24.450Z,13.55
2018-09-02T06:13:53.407Z,13.55
2018-09-02T06:16:22.302Z,13.67
2018-09-02T06:18:51.234Z,13.83
2018-09-02T06:21:23.959Z,13.92
2018-09-02T06:23:52.923Z,13.97
2018-09-02T06:26:21.864Z,14.13
2018-09-02T06:28:50.787Z,14.29
2018-09-02T06:31:19.813Z,14.22
2018-09-02T06:33:48.824Z,14.35
2018-09-02T06:36:18.091Z,14.36
2018-09-02T06:38:47.150Z,14.34
2018-09-02T06:41:16.088Z,14.47
2018-09-02T06:43:45.072Z,14.46
2018-09-02T06:46:14.019Z,14.51
2018-09-02T06:48:43.008Z,14.62
2018-09-02T06:51:11.963Z,14.53
2018-09-02T06:53:40.910Z,14.58
2018-09-02T06:56:09.832Z,14.60
2018-09-02T06:58:38.914Z,14.70
2018-09-02T07:01:07.722Z,14.74
2018-09-02T07:03:36.712Z,14.83
2018-09-02T07:06:05.737Z,14.80
2018-09-02T07:08:34.725Z,14.94
2018-09-02T07:11:03.673Z,15.01
2018-09-02T07:13:32.694Z,15.05
2018-09-02T07:16:01.790Z,14.92
2018-09-02T07:18:30.814Z,15.09
2018-09-02T07:20:59.774Z,15.21
2018-09-02T07:23:28.696Z,15.16
2018-09-02T07:25:57.672Z,15.14
2018-09-02T07:28:26.658Z,15.24
2018-09-02T07:30:55.635Z,15.34
2018-09-02T07:33:24.626Z,15.40
2018-09-02T07:35:53.567Z,15.53
2018-09-02T07:38:22.538Z,15.53
2018-09-02T07:40:51.487Z,15.62
2018-09-02T07:43:20.471Z,15.66
2018-09-02T07:45:49.390Z,15.61
2018-09-02T07:48:18.341Z,15.70
2018-09-02T07:50:47.303Z,15.75
2018-09-02T07:53:16.586Z,15.69
2018-09-02T07:55:45.736Z,15.79
2018-09-02T07:58:14.752Z,15.82
2018-09-02T08:00:43.642Z,15.90
2018-09-02T08:03:12.658Z,16.00
2018-09-02T08:05:41.625Z,16.06
2018-09-02T08:08:10.563Z,16.00
2018-09-02T08:10:39.507Z,16.07
2018-09-02T08:13:08.471Z,16.37
2018-09-02T08:15:37.397Z,16.37
2018-09-02T08:18:06.377Z,16.41
2018-09-02T08:20:35.646Z,16.43
2018-09-02T08:23:04.603Z,16.33
2018-09-02T08:25:33.538Z,16.56
2018-09-02T08:28:02.833Z,16.44
2018-09-02T08:30:31.729Z,16.62
2018-09-02T08:33:00.675Z,16.55
2018-09-02T08:35:29.596Z,16.63
2018-09-02T08:37:59.125Z,16.68
2018-09-02T08:40:28.460Z,16.74
2018-09-02T08:42:57.407Z,17.00
2018-09-02T08:45:26.377Z,16.87
2018-09-02T08:47:55.302Z,16.96
2018-09-02T08:50:24.368Z,17.06
2018-09-02T08:52:53.574Z,17.03
2018-09-02T08:55:22.503Z,17.04
2018-09-02T08:57:51.575Z,17.13
2018-09-02T09:00:20.907Z,17.08
2018-09-02T09:02:50.736Z,17.13
2018-09-02T09:05:19.729Z,17.41
2018-09-02T09:07:49.986Z,17.50
2018-09-02T09:10:19.176Z,17.33
2018-09-02T09:12:48.053Z,17.51
2018-09-02T09:15:16.966Z,17.68
2018-09-02T09:17:45.994Z,17.89
2018-09-02T09:20:14.951Z,17.73
2018-09-02T09:22:43.906Z,17.82
2018-09-02T09:25:12.943Z,17.74
2018-09-02T09:27:41.803Z,17.78
2018-09-02T09:30:10.962Z,17.88
2018-09-02T09:32:40.286Z,18.04
2018-09-02T09:35:09.194Z,17.94
2018-09-02T09:37:38.178Z,18.26
2018-09-02T09:40:07.241Z,18.44
2018-09-02T09:42:36.221Z,18.58
2018-09-02T09:45:05.259Z,18.62
2018-09-02T09:47:34.953Z,18.51
2018-09-02T09:50:03.986Z,18.44
2018-09-02T09:52:41.667Z,18.66
2018-09-02T09:55:10.615Z,18.74
2018-09-02T09:57:39.539Z,18.92
2018-09-02T10:00:08.492Z,18.64
2018-09-02T10:02:37.430Z,19.07
2018-09-02T10:05:06.354Z,18.76
2018-09-02T10:07:35.547Z,18.76
2018-09-02T10:10:04.506Z,19.13
2018-09-02T10:12:33.431Z,19.16
2018-09-02T10:15:02.458Z,19.03
2018-09-02T10:17:31.457Z,19.07
2018-09-02T10:20:00.683Z,19.37
2018-09-02T10:22:29.665Z,19.46
2018-09-02T10:24:58.597Z,19.39
2018-09-02T10:27:27.627Z,19.21
2018-09-02T10:29:56.557Z,19.18
2018-09-02T10:32:25.561Z,19.19
2018-09-02T10:34:54.496Z,19.58
2018-09-02T10:37:23.537Z,19.62
2018-09-02T10:39:52.518Z,19.60
2018-09-02T10:42:21.469Z,19.47
2018-09-02T10:44:50.445Z,19.27
2018-09-02T10:47:19.380Z,19.23
2018-09-02T10:49:48.367Z,19.71
2018-09-02T10:52:17.324Z,19.70
2018-09-02T10:54:46.331Z,19.53
2018-09-02T10:57:15.289Z,19.57
2018-09-02T10:59:44.380Z,19.63
2018-09-02T11:02:13.306Z,19.53
2018-09-02T11:04:42.820Z,19.76
2018-09-02T11:07:11.732Z,19.81
2018-09-02T11:09:40.695Z,19.74
2018-09-02T11:12:09.630Z,19.85
2018-09-02T11:14:38.636Z,19.74
2018-09-02T11:17:07.551Z,20.05
2018-09-02T11:19:36.502Z,20.07
2018-09-02T11:22:05.438Z,20.09
2018-09-02T11:24:34.395Z,19.95
2018-09-02T11:27:03.312Z,20.14
2018-09-02T11:29:32.631Z,19.97
2018-09-02T11:32:01.616Z,20.20
2018-09-02T11:34:30.554Z,20.20
2018-09-02T11:36:59.786Z,20.30
2018-09-02T11:39:28.769Z,20.39
2018-09-02T11:41:57.736Z,20.33
2018-09-02T11:44:26.703Z,20.33
2018-09-02T11:46:55.653Z,20.28
2018-09-02T11:49:24.931Z,20.34
2018-09-02T11:51:53.880Z,20.35
2018-09-02T11:54:22.811Z,20.39
2018-09-02T11:56:51.763Z,20.69
2018-09-02T11:59:20.695Z,20.48
2018-09-02T12:01:49.653Z,20.59
2018-09-02T12:04:18.608Z,20.87
2018-09-02T12:06:47.567Z,20.75
2018-09-02T12:09:16.573Z,20.70
2018-09-02T12:11:45.606Z,20.72
2018-09-02T12:14:14.645Z,20.82
2018-09-02T12:16:43.513Z,20.82
2018-09-02T12:19:12.457Z,20.86
2018-09-02T12:21:41.422Z,20.96
2018-09-02T12:24:11.148Z,20.98
2018-09-02T12:26:40.150Z,21.01
2018-09-02T12:29:09.148Z,20.97
2018-09-02T12:37:32.341Z,20.84
2018-09-02T12:40:01.306Z,21.18
2018-09-02T12:42:30.292Z,20.98
2018-09-02T12:44:59.321Z,21.10
2018-09-02T12:47:28.609Z,21.21
2018-09-02T12:49:57.591Z,21.13
2018-09-02T12:52:26.514Z,21.28
2018-09-02T12:54:55.542Z,21.33
2018-09-02T12:57:24.531Z,21.34
2018-09-02T12:59:53.477Z,21.66
2018-09-02T13:02:22.438Z,21.60
2018-09-02T13:04:51.442Z,21.68
2018-09-02T13:07:20.402Z,21.84
2018-09-02T13:09:49.409Z,21.86
2018-09-02T13:12:18.346Z,21.83
2018-09-02T13:14:48.243Z,21.77
2018-09-02T13:17:17.199Z,21.66
2018-09-02T13:19:46.184Z,21.72
2018-09-02T13:22:15.080Z,21.69
2018-09-02T13:24:44.094Z,21.60
2018-09-02T13:27:13.002Z,21.70
2018-09-02T13:29:41.977Z,21.74
2018-09-02T13:32:10.948Z,21.84
2018-09-02T13:34:39.930Z,21.82
2018-09-02T13:37:08.926Z,21.90
2018-09-02T13:39:38.175Z,21.88
2018-09-02T13:42:07.152Z,21.96
2018-09-02T13:44:36.076Z,21.97
2018-09-02T13:47:05.040Z,22.25
2018-09-02T13:49:33.946Z,22.07
2018-09-02T13:52:02.913Z,21.96
2018-09-02T13:54:31.913Z,22.06
2018-09-02T13:57:00.916Z,22.12
2018-09-02T13:59:29.899Z,22.07
2018-09-02T14:01:58.860Z,21.89
2018-09-02T14:04:27.842Z,22.01
2018-09-02T14:06:56.793Z,22.14
2018-09-02T14:09:25.733Z,22.03
2018-09-02T14:11:54.706Z,22.06
2018-09-02T14:14:23.673Z,21.95
2018-09-02T14:16:52.624Z,21.86
2018-09-02T14:21:49.813Z,22.17
2018-09-02T14:24:18.734Z,22.32
2018-09-02T14:26:47.686Z,22.36
2018-09-02T14:29:16.664Z,22.49
2018-09-02T14:31:45.645Z,22.46
2018-09-02T14:34:14.587Z,22.59
2018-09-02T14:36:43.560Z,22.72
2018-09-02T14:39:14.011Z,22.57
2018-09-02T14:41:43.347Z,22.49
2018-09-02T14:44:12.310Z,22.50
2018-09-02T14:46:41.269Z,22.46
2018-09-02T14:49:10.266Z,22.65
2018-09-02T14:51:39.279Z,22.59
2018-09-02T14:54:08.302Z,22.60
2018-09-02T14:56:37.421Z,22.72
2018-09-02T14:59:06.363Z,22.84
2018-09-02T15:01:35.312Z,22.87
2018-09-02T15:10:10.501Z,22.94
2018-09-02T15:12:39.502Z,22.88
2018-09-02T15:15:08.515Z,22.71
2018-09-02T15:17:37.484Z,22.62
2018-09-02T15:20:06.480Z,22.57
2018-09-02T15:22:35.422Z,22.61
2018-09-02T15:25:04.402Z,22.77
2018-09-02T15:27:33.408Z,22.82
2018-09-02T15:30:02.440Z,22.78
2018-09-02T15:32:31.458Z,22.61
2018-09-02T15:35:00.460Z,22.61
2018-09-02T15:37:29.415Z,22.55
2018-09-02T15:39:58.378Z,22.55
2018-09-02T15:42:27.556Z,22.47
2018-09-02T15:44:56.853Z,22.59
2018-09-02T15:47:25.822Z,22.55
2018-09-02T15:49:54.817Z,22.47
2018-09-02T15:52:23.784Z,22.43
2018-09-02T15:54:52.778Z,22.48
2018-09-02T15:57:21.780Z,22.47
2018-09-02T15:59:50.741Z,22.50
2018-09-02T16:02:19.688Z,22.47
2018-09-02T16:04:48.700Z,22.50
2018-09-02T16:07:17.724Z,22.51
2018-09-02T16:09:48.727Z,22.52
2018-09-02T16:12:18.935Z,22.56
2018-09-02T16:14:47.926Z,22.54
2018-09-02T16:17:16.910Z,22.57
2018-09-02T16:19:46.041Z,22.48
2018-09-02T16:22:15.147Z,22.46
2018-09-02T16:24:44.175Z,22.50
2018-09-02T16:27:13.150Z,22.49
2018-09-02T16:29:42.125Z,22.58
2018-09-02T16:32:15.165Z,22.61
2018-09-02T16:34:44.191Z,22.47
2018-09-02T16:37:13.139Z,22.41
2018-09-02T16:39:42.091Z,22.52
2018-09-02T16:42:11.056Z,22.44
2018-09-02T16:44:39.987Z,22.41
2018-09-02T16:47:09.164Z,22.36
2018-09-02T16:49:38.174Z,22.55
2018-09-02T16:52:08.322Z,22.43
2018-09-02T16:54:37.303Z,22.43
2018-09-02T16:57:06.570Z,22.33
2018-09-02T16:59:36.630Z,22.39
2018-09-02T17:02:05.605Z,22.38
2018-09-02T17:04:36.477Z,22.39
2018-09-02T17:07:05.417Z,22.35
2018-09-02T17:09:36.626Z,22.28
2018-09-02T17:12:05.665Z,22.29
2018-09-02T17:14:34.535Z,22.12
2018-09-02T17:17:03.535Z,22.19
2018-09-02T17:19:36.799Z,22.24
2018-09-02T17:22:05.973Z,22.22
2018-09-02T17:24:35.028Z,22.11
2018-09-02T17:27:03.988Z,22.09
2018-09-02T17:29:33.258Z,22.12
2018-09-02T17:32:05.363Z,22.04
2018-09-02T17:34:34.363Z,22.11
2018-09-02T17:37:03.419Z,22.08
2018-09-02T17:39:32.784Z,22.09
2018-09-02T17:42:02.729Z,22.03
2018-09-02T17:44:31.719Z,21.93
2018-09-02T17:47:00.706Z,22.01
2018-09-02T17:49:29.708Z,21.98
2018-09-02T17:51:58.926Z,21.86
2018-09-02T17:54:27.936Z,21.98
2018-09-02T17:56:56.874Z,21.86
2018-09-02T17:59:25.893Z,21.76
2018-09-02T18:01:54.919Z,21.86
2018-09-02T18:04:24.423Z,21.84
2018-09-02T18:06:54.539Z,21.91
2018-09-02T18:09:23.620Z,21.71
2018-09-02T18:11:52.533Z,21.77
2018-09-02T18:14:21.588Z,21.70
2018-09-02T18:16:50.640Z,21.66
2018-09-02T18:19:19.613Z,21.68
2018-09-02T18:21:48.613Z,21.71
2018-09-02T18:24:17.571Z,21.50
2018-09-02T18:26:46.723Z,21.58
2018-09-02T18:29:16.344Z,21.50
2018-09-02T18:31:45.948Z,21.51
2018-09-02T18:34:15.941Z,21.45
2018-09-02T18:36:44.903Z,21.47
2018-09-02T18:39:13.907Z,21.43
2018-09-02T18:41:43.745Z,21.49
2018-09-02T18:44:13.585Z,21.33
2018-09-02T18:46:43.450Z,21.43
2018-09-02T18:49:13.104Z,21.38
2018-09-02T18:51:42.274Z,21.45
2018-09-02T18:54:11.279Z,21.54
2018-09-02T18:56:40.258Z,21.37
2018-09-02T18:59:09.178Z,21.48
2018-09-02T19:01:44.901Z,21.21
2018-09-02T19:04:14.111Z,21.26
2018-09-02T19:06:43.065Z,21.16
2018-09-02T19:09:12.413Z,21.26
2018-09-02T19:11:41.433Z,21.41
2018-09-02T19:14:10.647Z,21.09
2018-09-02T19:16:40.559Z,21.20
2018-09-02T19:19:10.807Z,21.35
2018-09-02T19:21:39.973Z,21.25
2018-09-02T19:24:09.179Z,21.15
2018-09-02T19:26:38.403Z,21.34
2018-09-02T19:29:07.379Z,21.14
2018-09-02T19:31:36.404Z,21.18
2018-09-02T19:34:06.142Z,21.30
2018-09-02T19:36:35.253Z,21.09
2018-09-02T19:39:06.022Z,21.04
2018-09-02T19:41:34.966Z,21.22
2018-09-02T19:44:03.947Z,20.94
2018-09-02T19:46:32.886Z,20.99
2018-09-02T19:49:01.973Z,21.25
2018-09-02T19:51:30.959Z,21.13
2018-09-02T19:54:00.045Z,21.04
2018-09-02T19:56:28.992Z,21.00
2018-09-02T19:58:58.044Z,21.15
2018-09-02T20:01:27.028Z,21.08
2018-09-02T20:03:55.971Z,21.15
2018-09-02T20:06:25.647Z,21.14
2018-09-02T20:08:54.597Z,20.99
2018-09-02T20:11:23.524Z,21.06
2018-09-02T20:13:52.549Z,21.14
2018-09-02T20:16:21.693Z,21.02
2018-09-02T20:18:50.644Z,21.11
2018-09-02T20:21:19.729Z,20.96
2018-09-02T20:23:48.777Z,21.13
2018-09-02T20:26:18.437Z,21.05
2018-09-02T20:28:47.454Z,21.05
2018-09-02T20:31:16.711Z,20.99
2018-09-02T20:33:45.761Z,20.93
2018-09-02T20:36:14.776Z,21.03
2018-09-02T20:38:44.238Z,20.94
2018-09-02T20:41:13.216Z,20.97
2018-09-02T20:43:42.208Z,21.02
2018-09-02T20:46:11.778Z,20.85
2018-09-02T20:48:40.737Z,20.98
2018-09-02T20:51:10.178Z,20.94
2018-09-02T20:53:39.073Z,20.94
2018-09-02T20:56:07.985Z,20.75
2018-09-02T20:58:36.982Z,20.87
2018-09-02T21:01:06.342Z,20.82
2018-09-02T21:03:35.283Z,20.67
2018-09-02T21:06:04.316Z,20.72
2018-09-02T21:08:33.448Z,20.77
2018-09-02T21:11:02.779Z,20.67
2018-09-02T21:13:31.851Z,20.85
2018-09-02T21:16:00.904Z,20.77
2018-09-02T21:18:30.015Z,20.69
2018-09-02T21:20:59.065Z,20.64
2018-09-02T21:23:28.151Z,20.64
2018-09-02T21:25:57.087Z,20.69
2018-09-02T21:28:27.188Z,20.61
2018-09-02T21:30:56.105Z,20.59
2018-09-02T21:33:25.157Z,20.63
2018-09-02T21:35:54.224Z,20.76
2018-09-02T21:38:23.348Z,20.79
2018-09-02T21:40:52.430Z,20.77
2018-09-02T21:43:21.396Z,20.75
2018-09-02T21:45:50.385Z,20.71
2018-09-02T21:48:19.413Z,20.54
2018-09-02T21:50:48.396Z,20.57
2018-09-02T21:53:17.405Z,20.57
2018-09-02T21:55:46.402Z,20.66
2018-09-02T21:58:15.420Z,20.63
2018-09-02T22:00:44.389Z,20.51
2018-09-02T22:03:16.323Z,20.63
2018-09-02T22:05:45.259Z,20.40
2018-09-02T22:08:14.252Z,20.36
2018-09-02T22:10:43.244Z,20.39
2018-09-02T22:13:12.674Z,20.41
2018-09-02T22:15:41.596Z,20.44
2018-09-02T22:18:10.687Z,20.49
2018-09-02T22:20:39.930Z,20.49
2018-09-02T22:23:08.932Z,20.39
2018-09-02T22:25:40.496Z,20.36
2018-09-02T22:28:09.885Z,20.29
2018-09-02T22:30:39.953Z,20.37
2018-09-02T22:33:11.096Z,20.37
2018-09-02T22:35:40.219Z,20.10
2018-09-02T22:38:09.224Z,20.11
2018-09-02T22:40:38.236Z,20.34
2018-09-02T22:43:07.770Z,20.22
2018-09-02T22:45:36.729Z,20.29
2018-09-02T22:48:05.665Z,20.26
2018-09-02T22:50:34.806Z,20.07
2018-09-02T22:53:03.791Z,20.07
2018-09-02T22:55:32.731Z,20.26
2018-09-02T22:58:01.794Z,20.38
2018-09-02T23:00:30.672Z,20.33
2018-09-02T23:02:59.588Z,20.35
2018-09-02T23:05:28.537Z,20.25
2018-09-02T23:07:57.509Z,20.34
2018-09-02T23:10:26.511Z,20.29
2018-09-02T23:12:55.466Z,20.30
2018-09-02T23:15:24.497Z,20.36
2018-09-02T23:17:53.462Z,20.27
2018-09-02T23:20:22.439Z,20.26
2018-09-02T23:22:51.402Z,20.30
2018-09-02T23:25:20.651Z,20.30
2018-09-02T23:27:49.602Z,20.26
2018-09-02T23:30:18.571Z,20.17
2018-09-02T23:32:47.613Z,20.23
2018-09-02T23:35:16.552Z,20.29
2018-09-02T23:37:45.497Z,20.05
2018-09-02T23:40:15.037Z,20.20
2018-09-02T23:42:44.301Z,19.90
2018-09-02T23:45:13.230Z,19.95
2018-09-02T23:47:42.143Z,20.02
2018-09-02T23:50:11.154Z,19.79
2018-09-02T23:52:40.050Z,19.98
2018-09-02T23:55:08.977Z,19.98
2018-09-02T23:57:37.956Z,19.83
